createdAt,value
2023-02-15T00:00:09.100Z,96328.75
2023-02-15T00:02:36.104Z,96332.28
2023-02-15T00:05:03.188Z,96326.25
2023-02-15T00:07:30.336Z,96327.91
2023-02-15T00:09:57.318Z,96321.78
2023-02-15T00:12:24.372Z,96328.16
2023-02-15T00:14:51.300Z,96323.66
2023-02-15T00:17:18.373Z,96321.91
2023-02-15T00:19:45.413Z,96319.41
2023-02-15T00:22:12.955Z,96316.94
2023-02-15T00:24:40.054Z,96313.53
2023-02-15T00:27:07.040Z,96311.03
2023-02-15T00:29:34.089Z,96313.63
2023-02-15T00:32:01.123Z,96319.19
2023-02-15T00:34:29.635Z,96314.34
2023-02-15T00:36:57.807Z,96311.88
2023-02-15T00:39:25.319Z,96311.97
2023-02-15T00:41:52.234Z,96313.28
2023-02-15T00:44:19.327Z,96303.09
2023-02-15T00:46:46.459Z,96302.75
2023-02-15T00:49:13.638Z,96299.19
2023-02-15T00:51:40.757Z,96306.03
2023-02-15T00:54:08.480Z,96302.63
2023-02-15T00:56:35.507Z,96307.56
2023-02-15T00:59:02.845Z,96306.75
2023-02-15T01:01:30.120Z,96307.34
2023-02-15T01:03:57.322Z,96304.38
2023-02-15T01:06:24.413Z,96298.72
2023-02-15T01:08:51.342Z,96302.84
2023-02-15T01:11:24.988Z,96295.19
2023-02-15T01:13:55.969Z,96297.78
2023-02-15T01:16:25.813Z,96293.88
2023-02-15T01:18:53.354Z,96296.38
2023-02-15T01:21:24.192Z,96284.66
2023-02-15T01:23:51.229Z,96289.97
2023-02-15T01:26:18.808Z,96289.38
2023-02-15T01:28:46.342Z,96278.41
2023-02-15T01:31:17.040Z,96279.22
2023-02-15T01:33:47.652Z,96275.22
2023-02-15T01:36:15.557Z,96275.09
2023-02-15T01:38:42.704Z,96277.34
2023-02-15T01:41:23.873Z,96276.28
2023-02-15T01:43:56.040Z,96264.25
2023-02-15T01:46:36.756Z,96260.84
2023-02-15T01:49:14.406Z,96258.13
2023-02-15T01:51:44.567Z,96262.13
2023-02-15T01:54:32.832Z,96249.16
2023-02-15T01:57:06.283Z,96239.03
2023-02-15T01:59:36.200Z,96241.50
2023-02-15T02:02:04.985Z,96231.25
2023-02-15T02:05:03.944Z,96236.56
2023-02-15T02:07:35.353Z,96231.25
2023-02-15T02:10:04.323Z,96227.72
2023-02-15T02:12:34.660Z,96222.75
2023-02-15T02:15:02.430Z,96225.09
2023-02-15T02:18:11.548Z,96225.22
2023-02-15T02:21:27.854Z,96220.72
2023-02-15T02:24:25.622Z,96220.25
2023-02-15T02:27:34.736Z,96225.06
2023-02-15T02:30:37.836Z,96222.13
2023-02-15T02:33:29.596Z,96221.31
2023-02-15T02:36:33.485Z,96217.06
2023-02-15T02:39:28.923Z,96217.75
2023-02-15T02:42:16.311Z,96215.88
2023-02-15T02:44:55.048Z,96214.69
2023-02-15T02:47:39.232Z,96217.88
2023-02-15T02:50:10.772Z,96219.44
2023-02-15T02:52:45.562Z,96218.72
2023-02-15T02:55:49.595Z,96225.56
2023-02-15T02:58:37.908Z,96220.59
2023-02-15T03:01:21.915Z,96217.28
2023-02-15T03:03:54.247Z,96210.47
2023-02-15T03:06:32.242Z,96207.88
2023-02-15T03:09:15.389Z,96204.44
2023-02-15T03:11:45.026Z,96201.16
2023-02-15T03:14:14.762Z,96209.03
2023-02-15T03:16:44.923Z,96201.50
2023-02-15T03:19:19.723Z,96192.28
2023-02-15T03:21:59.000Z,96198.19
2023-02-15T03:24:38.326Z,96184.16
2023-02-15T03:27:12.789Z,96184.97
2023-02-15T03:29:40.937Z,96182.63
2023-02-15T03:32:12.606Z,96184.38
2023-02-15T03:34:40.052Z,96185.56
2023-02-15T03:37:37.576Z,96180.38
2023-02-15T03:40:51.577Z,96189.69
2023-02-15T03:43:25.060Z,96186.50
2023-02-15T03:46:00.251Z,96183.19
2023-02-15T03:48:38.440Z,96186.84
2023-02-15T03:51:32.331Z,96185.19
2023-02-15T03:54:04.844Z,96183.63
2023-02-15T03:56:34.542Z,96184.00
2023-02-15T03:59:20.359Z,96193.41
2023-02-15T04:02:02.521Z,96192.94
2023-02-15T04:04:44.105Z,96183.63
2023-02-15T04:07:11.167Z,96186.94
2023-02-15T04:09:56.477Z,96180.81
2023-02-15T04:12:23.942Z,96185.03
2023-02-15T04:15:09.314Z,96189.28
2023-02-15T04:17:38.577Z,96185.88
2023-02-15T04:20:25.193Z,96192.72
2023-02-15T04:23:10.836Z,96181.03
2023-02-15T04:25:38.000Z,96177.63
2023-02-15T04:28:05.082Z,96173.59
2023-02-15T04:30:32.124Z,96177.72
2023-02-15T04:32:59.302Z,96167.59
2023-02-15T04:35:26.795Z,96166.06
2023-02-15T04:37:53.759Z,96170.06
2023-02-15T04:40:20.954Z,96175.25
2023-02-15T04:42:51.056Z,96165.81
2023-02-15T04:45:18.731Z,96172.44
2023-02-15T04:47:46.162Z,96168.66
2023-02-15T04:50:13.401Z,96164.19
2023-02-15T04:52:40.509Z,96173.53
2023-02-15T04:55:08.191Z,96171.63
2023-02-15T04:57:35.196Z,96168.94
2023-02-15T05:00:02.330Z,96174.00
2023-02-15T05:02:29.311Z,96172.47
2023-02-15T05:04:56.206Z,96170.00
2023-02-15T05:07:23.136Z,96168.66
2023-02-15T05:09:50.777Z,96164.53
2023-02-15T05:12:17.697Z,96158.75
2023-02-15T05:14:44.718Z,96157.09
2023-02-15T05:17:11.711Z,96155.31
2023-02-15T05:19:38.736Z,96150.50
2023-02-15T05:22:05.799Z,96154.97
2023-02-15T05:24:51.050Z,96162.88
2023-02-15T05:27:36.758Z,96163.19
2023-02-15T05:30:04.510Z,96165.19
2023-02-15T05:32:31.690Z,96169.56
2023-02-15T05:34:58.865Z,96167.91
2023-02-15T05:37:25.726Z,96166.38
2023-02-15T05:39:52.761Z,96170.84
2023-02-15T05:42:19.670Z,96180.47
2023-02-15T05:44:46.729Z,96168.91
2023-02-15T05:47:13.704Z,96180.72
2023-02-15T05:49:40.914Z,96181.66
2023-02-15T05:52:09.126Z,96183.91
2023-02-15T05:54:36.135Z,96180.34
2023-02-15T05:57:03.336Z,96180.34
2023-02-15T05:59:30.461Z,96193.09
2023-02-15T06:01:57.474Z,96182.84
2023-02-15T06:04:24.488Z,96188.63
2023-02-15T06:06:52.031Z,96195.38
2023-02-15T06:09:19.345Z,96192.03
2023-02-15T06:11:47.519Z,96192.88
2023-02-15T06:14:14.618Z,96189.34
2023-02-15T06:16:41.658Z,96195.97
2023-02-15T06:19:08.693Z,96196.19
2023-02-15T06:21:35.907Z,96201.47
2023-02-15T06:24:03.001Z,96205.72
2023-02-15T06:26:30.065Z,96204.88
2023-02-15T06:28:57.187Z,96203.94
2023-02-15T06:31:24.318Z,96206.41
2023-02-15T06:33:51.396Z,96203.81
2023-02-15T06:36:18.421Z,96202.53
2023-02-15T06:38:45.472Z,96202.66
2023-02-15T06:41:12.607Z,96213.50
2023-02-15T06:43:41.036Z,96215.25
2023-02-15T06:46:08.615Z,96205.84
2023-02-15T06:48:35.779Z,96206.78
2023-02-15T06:51:02.956Z,96208.31
2023-02-15T06:53:30.076Z,96209.38
2023-02-15T06:56:09.996Z,96204.28
2023-02-15T06:58:38.955Z,96220.66
2023-02-15T07:01:06.714Z,96213.34
2023-02-15T07:03:34.369Z,96215.81
2023-02-15T07:06:06.874Z,96219.00
2023-02-15T07:08:33.960Z,96226.59
2023-02-15T07:11:21.388Z,96216.91
2023-02-15T07:13:48.670Z,96223.28
2023-02-15T07:16:15.857Z,96227.22
2023-02-15T07:18:43.090Z,96222.16
2023-02-15T07:21:10.192Z,96217.91
2023-02-15T07:23:39.436Z,96217.06
2023-02-15T07:26:07.717Z,96213.66
2023-02-15T07:28:35.828Z,96216.84
2023-02-15T07:31:06.772Z,96207.78
2023-02-15T07:33:35.214Z,96204.84
2023-02-15T07:36:04.862Z,96199.19
2023-02-15T07:38:37.537Z,96208.09
2023-02-15T07:41:09.135Z,96198.19
2023-02-15T07:43:39.355Z,96198.66
2023-02-15T07:46:13.522Z,96199.97
2023-02-15T07:48:44.150Z,96188.63
2023-02-15T07:51:12.537Z,96199.59
2023-02-15T07:53:40.399Z,96194.91
2023-02-15T07:56:12.492Z,96191.25
2023-02-15T07:58:51.743Z,96189.13
2023-02-15T08:01:34.654Z,96182.88
2023-02-15T08:04:02.143Z,96197.16
2023-02-15T08:06:32.515Z,96192.44
2023-02-15T08:08:59.821Z,96193.75
2023-02-15T08:11:33.663Z,96185.00
2023-02-15T08:14:07.797Z,96189.47
2023-02-15T08:16:46.989Z,96190.78
2023-02-15T08:19:23.640Z,96189.00
2023-02-15T08:21:57.959Z,96183.81
2023-02-15T08:24:29.675Z,96186.19
2023-02-15T08:26:57.506Z,96187.13
2023-02-15T08:29:28.305Z,96187.13
2023-02-15T08:32:03.717Z,96185.25
2023-02-15T08:34:34.802Z,96185.81
2023-02-15T08:37:01.934Z,96190.28
2023-02-15T08:39:29.686Z,96178.72
2023-02-15T08:41:56.823Z,96185.06
2023-02-15T08:44:23.987Z,96188.13
2023-02-15T08:46:51.431Z,96176.81
2023-02-15T08:49:21.954Z,96180.09
2023-02-15T08:51:50.560Z,96172.88
2023-02-15T08:54:21.549Z,96174.16
2023-02-15T08:56:49.095Z,96182.06
2023-02-15T08:59:20.794Z,96172.38
2023-02-15T09:01:50.232Z,96180.72
2023-02-15T09:04:17.736Z,96177.88
2023-02-15T09:06:48.513Z,96180.81
2023-02-15T09:09:18.510Z,96179.75
2023-02-15T09:11:48.873Z,96185.75
2023-02-15T09:14:20.984Z,96179.47
2023-02-15T09:16:50.072Z,96181.59
2023-02-15T09:19:18.931Z,96176.28
2023-02-15T09:21:46.305Z,96176.97
2023-02-15T09:24:16.002Z,96169.28
2023-02-15T09:26:46.289Z,96169.38
2023-02-15T09:29:15.624Z,96164.97
2023-02-15T09:31:49.953Z,96168.03
2023-02-15T09:34:20.511Z,96175.44
2023-02-15T09:36:48.920Z,96166.09
2023-02-15T09:39:24.802Z,96163.22
2023-02-15T09:42:41.995Z,96165.44
2023-02-15T09:45:40.560Z,96161.69
2023-02-15T09:48:47.310Z,96163.78
2023-02-15T09:52:16.277Z,96158.63
2023-02-15T09:55:06.062Z,96168.53
2023-02-15T09:57:54.669Z,96162.25
2023-02-15T10:01:11.137Z,96163.91
2023-02-15T10:03:51.751Z,96158.81
2023-02-15T10:06:50.513Z,96160.66
2023-02-15T10:09:47.743Z,96159.44
2023-02-15T10:12:31.095Z,96150.16
2023-02-15T10:15:12.532Z,96141.31
2023-02-15T10:18:05.357Z,96148.63
2023-02-15T10:21:00.860Z,96136.22
2023-02-15T10:23:56.234Z,96142.00
2023-02-15T10:26:45.442Z,96139.44
2023-02-15T10:29:37.414Z,96138.22
2023-02-15T10:32:24.943Z,96129.03
2023-02-15T10:35:20.289Z,96137.25
2023-02-15T10:38:04.783Z,96128.47
2023-02-15T10:41:03.831Z,96132.47
2023-02-15T10:44:21.616Z,96127.91
2023-02-15T10:47:25.107Z,96117.34
2023-02-15T10:50:35.213Z,96119.78
2023-02-15T10:53:29.801Z,96112.78
2023-02-15T10:56:21.398Z,96104.94
2023-02-15T10:59:20.005Z,96107.63
2023-02-15T11:02:18.783Z,96095.81
2023-02-15T11:04:51.869Z,96093.59
2023-02-15T11:07:34.868Z,96095.78
2023-02-15T11:10:39.520Z,96092.22
2023-02-15T11:13:12.709Z,96083.69
2023-02-15T11:15:55.320Z,96079.97
2023-02-15T11:18:28.327Z,96085.28
2023-02-15T11:20:59.159Z,96086.50
2023-02-15T11:23:27.377Z,96079.59
2023-02-15T11:26:20.709Z,96076.03
2023-02-15T11:28:56.061Z,96075.44
2023-02-15T11:31:26.772Z,96072.91
2023-02-15T11:34:05.786Z,96067.75
2023-02-15T11:36:41.568Z,96059.31
2023-02-15T11:39:19.087Z,96065.75
2023-02-15T11:41:52.992Z,96057.31
2023-02-15T11:44:48.377Z,96056.88
2023-02-15T11:47:15.462Z,96058.09
2023-02-15T11:49:42.532Z,96051.44
2023-02-15T11:52:15.470Z,96054.84
2023-02-15T11:54:46.437Z,96051.75
2023-02-15T11:57:25.053Z,96051.91
2023-02-15T12:00:01.829Z,96058.63
2023-02-15T12:02:38.599Z,96046.91
2023-02-15T12:05:14.564Z,96039.63
2023-02-15T12:08:05.120Z,96034.00
2023-02-15T12:10:48.969Z,96032.38
2023-02-15T12:13:20.338Z,96019.41
2023-02-15T12:15:51.467Z,96017.72
2023-02-15T12:18:31.889Z,96018.78
2023-02-15T12:21:04.435Z,96017.19
2023-02-15T12:23:34.152Z,96007.59
2023-02-15T12:26:01.544Z,96008.47
2023-02-15T12:28:38.395Z,96005.19
2023-02-15T12:31:38.577Z,96001.00
2023-02-15T12:34:14.083Z,95993.91
2023-02-15T12:36:51.720Z,95980.31
2023-02-15T12:39:36.746Z,95981.09
2023-02-15T12:42:17.320Z,95971.38
2023-02-15T12:45:00.877Z,95968.38
2023-02-15T12:47:31.008Z,95958.31
2023-02-15T12:50:23.952Z,95957.13
2023-02-15T12:53:08.766Z,95953.38
2023-02-15T12:55:36.320Z,95952.50
2023-02-15T12:58:26.021Z,95950.09
2023-02-15T13:01:22.785Z,95942.63
2023-02-15T13:04:03.295Z,95932.97
2023-02-15T13:06:36.717Z,95936.09
2023-02-15T13:09:15.232Z,95944.00
2023-02-15T13:11:44.864Z,95933.34
2023-02-15T13:14:30.347Z,95926.28
2023-02-15T13:17:01.768Z,95925.91
2023-02-15T13:19:46.050Z,95926.03
2023-02-15T13:22:18.767Z,95920.44
2023-02-15T13:24:54.808Z,95922.00
2023-02-15T13:27:25.245Z,95922.50
2023-02-15T13:30:00.622Z,95920.31
2023-02-15T13:32:39.139Z,95921.41
2023-02-15T13:35:09.807Z,95913.91
2023-02-15T13:37:51.805Z,95913.28
2023-02-15T13:41:05.563Z,95919.09
2023-02-15T13:44:13.453Z,95902.56
2023-02-15T13:47:01.821Z,95901.22
2023-02-15T13:50:00.369Z,95903.59
2023-02-15T13:52:30.759Z,95908.63
2023-02-15T13:55:09.680Z,95909.69
2023-02-15T13:58:08.035Z,95906.69
2023-02-15T14:00:40.747Z,95914.75
2023-02-15T14:03:22.535Z,95913.69
2023-02-15T14:06:04.284Z,95908.06
2023-02-15T14:08:44.149Z,95899.69
2023-02-15T14:11:27.774Z,95902.81
2023-02-15T14:14:03.753Z,95900.91
2023-02-15T14:17:20.515Z,95893.28
2023-02-15T14:20:21.217Z,95904.31
2023-02-15T14:22:56.287Z,95899.19
2023-02-15T14:25:50.696Z,95903.97
2023-02-15T14:28:42.861Z,95907.66
2023-02-15T14:31:13.654Z,95903.00
2023-02-15T14:33:50.637Z,95903.72
2023-02-15T14:36:20.915Z,95899.66
2023-02-15T14:39:32.649Z,95899.38
2023-02-15T14:42:16.893Z,95898.69
2023-02-15T14:45:20.371Z,95896.63
2023-02-15T14:48:06.186Z,95896.94
2023-02-15T14:50:38.112Z,95894.94
2023-02-15T14:53:33.098Z,95896.34
2023-02-15T14:56:08.375Z,95890.53
2023-02-15T14:58:35.288Z,95885.78
2023-02-15T15:01:08.945Z,95886.34
2023-02-15T15:03:36.614Z,95893.97
2023-02-15T15:06:06.147Z,95890.75
2023-02-15T15:08:41.315Z,95887.47
2023-02-15T15:11:52.167Z,95898.06
2023-02-15T15:14:34.431Z,95903.50
2023-02-15T15:17:04.721Z,95908.91
2023-02-15T15:19:54.021Z,95904.06
2023-02-15T15:22:29.916Z,95903.91
2023-02-15T15:25:00.536Z,95910.13
2023-02-15T15:27:46.681Z,95909.63
2023-02-15T15:30:19.997Z,95908.28
2023-02-15T15:32:55.985Z,95913.59
2023-02-15T15:36:06.513Z,95906.38
2023-02-15T15:39:03.155Z,95907.88
2023-02-15T15:42:02.194Z,95911.91
2023-02-15T15:45:15.811Z,95906.94
2023-02-15T15:48:01.930Z,95909.16
2023-02-15T15:50:33.932Z,95901.06
2023-02-15T15:53:03.752Z,95894.84
2023-02-15T15:55:33.263Z,95908.28
2023-02-15T15:58:07.237Z,95905.28
2023-02-15T16:00:44.656Z,95895.22
2023-02-15T16:03:24.351Z,95902.31
2023-02-15T16:05:55.308Z,95899.91
2023-02-15T16:08:34.475Z,95901.88
2023-02-15T16:11:15.550Z,95902.81
2023-02-15T16:13:44.107Z,95900.84
2023-02-15T16:16:14.556Z,95903.91
2023-02-15T16:18:43.482Z,95904.97
2023-02-15T16:21:23.669Z,95893.75
2023-02-15T16:24:19.853Z,95893.47
2023-02-15T16:27:28.677Z,95897.53
2023-02-15T16:29:55.791Z,95900.34
2023-02-15T16:32:26.577Z,95896.81
2023-02-15T16:35:03.170Z,95898.97
2023-02-15T16:37:35.514Z,95899.97
2023-02-15T16:40:03.072Z,95905.88
2023-02-15T16:42:30.327Z,95908.03
2023-02-15T16:45:10.129Z,95901.81
2023-02-15T16:47:44.737Z,95905.88
2023-02-15T16:50:22.019Z,95906.50
2023-02-15T16:52:49.104Z,95910.25
2023-02-15T16:55:25.789Z,95907.81
2023-02-15T16:57:59.978Z,95910.75
2023-02-15T17:00:35.475Z,95911.91
2023-02-15T17:03:07.454Z,95899.31
2023-02-15T17:06:01.851Z,95904.81
2023-02-15T17:09:06.895Z,95909.50
2023-02-15T17:11:43.538Z,95905.22
2023-02-15T17:14:10.955Z,95907.81
2023-02-15T17:16:50.682Z,95899.22
2023-02-15T17:19:54.726Z,95905.50
2023-02-15T17:22:26.111Z,95899.59
2023-02-15T17:25:01.725Z,95894.69
2023-02-15T17:27:32.728Z,95897.78
2023-02-15T17:30:13.968Z,95894.50
2023-02-15T17:32:59.082Z,95902.00
2023-02-15T17:35:28.872Z,95909.53
2023-02-15T17:38:20.959Z,95915.66
2023-02-15T17:40:48.307Z,95916.44
2023-02-15T17:43:15.221Z,95920.66
2023-02-15T17:45:49.338Z,95930.75
2023-02-15T17:48:32.912Z,95933.16
2023-02-15T17:51:03.928Z,95926.97
2023-02-15T17:53:31.754Z,95930.09
2023-02-15T17:55:59.469Z,95923.75
2023-02-15T17:58:26.489Z,95931.94
2023-02-15T18:01:16.428Z,95930.94
2023-02-15T18:04:09.852Z,95930.88
2023-02-15T18:06:58.215Z,95935.03
2023-02-15T18:09:44.578Z,95942.50
2023-02-15T18:12:21.495Z,95943.00
2023-02-15T18:14:50.043Z,95949.66
2023-02-15T18:17:18.554Z,95951.66
2023-02-15T18:19:46.780Z,95943.53
2023-02-15T18:22:18.906Z,95944.63
2023-02-15T18:24:47.999Z,95943.34
2023-02-15T18:27:16.824Z,95943.72
2023-02-15T18:29:43.968Z,95939.69
2023-02-15T18:32:19.940Z,95937.38
2023-02-15T18:34:48.680Z,95936.09
2023-02-15T18:37:19.966Z,95935.41
2023-02-15T18:39:49.916Z,95922.94
2023-02-15T18:42:35.142Z,95930.13
2023-02-15T18:45:33.212Z,95928.69
2023-02-15T18:48:00.659Z,95937.41
2023-02-15T18:50:32.988Z,95929.91
2023-02-15T18:53:00.175Z,95933.56
2023-02-15T18:55:28.413Z,95933.78
2023-02-15T18:57:57.359Z,95940.75
2023-02-15T19:00:34.914Z,95941.56
2023-02-15T19:03:02.881Z,95936.50
2023-02-15T19:05:31.085Z,95932.13
2023-02-15T19:08:00.311Z,95926.28
2023-02-15T19:10:30.555Z,95923.91
2023-02-15T19:12:58.272Z,95930.28
2023-02-15T19:15:30.385Z,95924.63
2023-02-15T19:17:57.544Z,95923.22
2023-02-15T19:20:41.737Z,95917.72
2023-02-15T19:23:22.583Z,95917.34
2023-02-15T19:25:51.817Z,95910.88
2023-02-15T19:28:32.767Z,95915.38
2023-02-15T19:30:59.919Z,95904.75
2023-02-15T19:33:27.217Z,95909.50
2023-02-15T19:35:57.473Z,95908.91
2023-02-15T19:38:30.707Z,95909.25
2023-02-15T19:41:06.212Z,95914.66
2023-02-15T19:43:35.156Z,95913.03
2023-02-15T19:46:02.447Z,95905.72
2023-02-15T19:48:29.648Z,95902.63
2023-02-15T19:50:57.067Z,95908.88
2023-02-15T19:53:27.781Z,95901.59
2023-02-15T19:55:55.323Z,95897.47
2023-02-15T19:58:22.484Z,95895.09
2023-02-15T20:00:51.945Z,95896.16
2023-02-15T20:03:19.232Z,95900.75
2023-02-15T20:05:46.926Z,95897.56
2023-02-15T20:08:22.581Z,95896.41
2023-02-15T20:10:50.280Z,95893.22
2023-02-15T20:13:19.580Z,95886.59
2023-02-15T20:15:47.310Z,95882.72
2023-02-15T20:18:14.429Z,95880.22
2023-02-15T20:20:49.799Z,95882.94
2023-02-15T20:23:24.000Z,95871.06
2023-02-15T20:25:51.150Z,95873.19
2023-02-15T20:28:22.218Z,95887.16
2023-02-15T20:30:50.270Z,95882.22
2023-02-15T20:33:19.142Z,95891.97
2023-02-15T20:35:50.348Z,95890.53
2023-02-15T20:38:20.682Z,95896.66
2023-02-15T20:41:06.521Z,95889.81
2023-02-15T20:43:34.746Z,95890.75
2023-02-15T20:46:03.076Z,95893.47
2023-02-15T20:48:30.417Z,95901.22
2023-02-15T20:51:00.590Z,95896.97
2023-02-15T20:53:29.243Z,95899.78
2023-02-15T20:55:56.942Z,95893.91
2023-02-15T20:58:28.179Z,95890.50
2023-02-15T21:00:58.135Z,95887.22
2023-02-15T21:03:30.886Z,95880.59
2023-02-15T21:05:59.022Z,95878.13
2023-02-15T21:08:26.717Z,95876.72
2023-02-15T21:10:54.616Z,95874.94
2023-02-15T21:13:30.768Z,95872.59
2023-02-15T21:15:59.110Z,95867.97
2023-02-15T21:18:33.514Z,95865.25
2023-02-15T21:21:05.324Z,95864.66
2023-02-15T21:23:39.620Z,95865.63
2023-02-15T21:26:14.416Z,95877.81
2023-02-15T21:28:41.956Z,95889.94
2023-02-15T21:31:22.324Z,95877.81
2023-02-15T21:33:49.585Z,95875.38
2023-02-15T21:36:23.932Z,95870.19
2023-02-15T21:38:53.636Z,95872.78
2023-02-15T21:41:42.463Z,95866.88
2023-02-15T21:44:41.134Z,95863.50
2023-02-15T21:47:42.703Z,95858.72
2023-02-15T21:50:36.272Z,95870.47
2023-02-15T21:53:05.646Z,95871.50
2023-02-15T21:55:33.230Z,95866.25
2023-02-15T21:58:01.130Z,95872.81
2023-02-15T22:00:28.710Z,95868.59
2023-02-15T22:02:58.804Z,95876.25
2023-02-15T22:05:31.379Z,95890.19
2023-02-15T22:08:00.730Z,95887.72
2023-02-15T22:10:31.501Z,95885.38
2023-02-15T22:13:01.563Z,95887.97
2023-02-15T22:15:35.337Z,95886.31
2023-02-15T22:18:03.419Z,95888.66
2023-02-15T22:20:30.347Z,95876.66
2023-02-15T22:22:57.234Z,95872.47
2023-02-15T22:25:26.005Z,95873.25
2023-02-15T22:27:54.639Z,95866.31
2023-02-15T22:30:32.144Z,95862.22
2023-02-15T22:33:00.451Z,95862.13
2023-02-15T22:35:30.991Z,95864.78
2023-02-15T22:37:58.445Z,95865.97
2023-02-15T22:40:32.820Z,95865.16
2023-02-15T22:43:05.622Z,95870.31
2023-02-15T22:45:36.190Z,95861.13
2023-02-15T22:48:03.452Z,95873.91
2023-02-15T22:50:33.512Z,95870.13
2023-02-15T22:53:02.340Z,95864.38
2023-02-15T22:55:36.709Z,95872.44
2023-02-15T22:58:04.666Z,95866.88
2023-02-15T23:00:40.208Z,95874.63
2023-02-15T23:03:26.020Z,95867.59
2023-02-15T23:05:53.303Z,95859.34
2023-02-15T23:08:20.944Z,95871.34
2023-02-15T23:10:55.657Z,95873.91
2023-02-15T23:13:29.425Z,95866.50
2023-02-15T23:16:02.777Z,95868.22
2023-02-15T23:18:42.373Z,95862.13
2023-02-15T23:21:31.799Z,95866.38
2023-02-15T23:24:22.569Z,95868.34
2023-02-15T23:26:50.459Z,95861.03
2023-02-15T23:29:23.503Z,95863.94
2023-02-15T23:31:53.640Z,95874.38
2023-02-15T23:34:30.193Z,95866.22
2023-02-15T23:36:57.674Z,95875.84
2023-02-15T23:39:46.329Z,95865.09
2023-02-15T23:42:15.283Z,95866.97
2023-02-15T23:44:44.892Z,95855.09
2023-02-15T23:47:46.692Z,95862.75
2023-02-15T23:50:19.804Z,95866.56
2023-02-15T23:52:47.374Z,95860.06
2023-02-15T23:55:15.878Z,95867.00
2023-02-15T23:57:43.877Z,95865.13
